sensor_id;sensor_type;location;lat;lon;timestamp;P1;durP1;ratioP1;P2;durP2;ratioP2
81191;SDS011;70665;47.652;-2.730;2023-06-19T00:03:40;10.98;;;4.28;;
81191;SDS011;70665;47.652;-2.730;2023-06-19T00:06:06;8.30;;;3.70;;
81191;SDS011;70665;47.652;-2.730;2023-06-19T00:10:57;7.45;;;3.75;;
81191;SDS011;70665;47.652;-2.730;2023-06-19T00:15:48;9.20;;;3.65;;
81191;SDS011;70665;47.652;-2.730;2023-06-19T00:18:14;7.55;;;3.85;;
81191;SDS011;70665;47.652;-2.730;2023-06-19T00:20:41;8.48;;;3.85;;
81191;SDS011;70665;47.652;-2.730;2023-06-19T00:23:10;7.13;;;3.75;;
81191;SDS011;70665;47.652;-2.730;2023-06-19T00:25:38;8.60;;;3.92;;
81191;SDS011;70665;47.652;-2.730;2023-06-19T00:28:05;10.30;;;4.43;;
81191;SDS011;70665;47.652;-2.730;2023-06-19T00:30:36;10.00;;;4.90;;
81191;SDS011;70665;47.652;-2.730;2023-06-19T00:33:02;11.73;;;3.70;;
81191;SDS011;70665;47.652;-2.730;2023-06-19T00:37:53;10.80;;;3.30;;
81191;SDS011;70665;47.652;-2.730;2023-06-19T00:40:29;10.07;;;4.10;;
81191;SDS011;70665;47.652;-2.730;2023-06-19T00:42:56;7.30;;;3.67;;
81191;SDS011;70665;47.652;-2.730;2023-06-19T00:45:22;9.60;;;4.63;;
81191;SDS011;70665;47.652;-2.730;2023-06-19T00:47:49;10.43;;;3.97;;
81191;SDS011;70665;47.652;-2.730;2023-06-19T00:50:16;8.70;;;3.92;;
81191;SDS011;70665;47.652;-2.730;2023-06-19T00:55:08;12.85;;;3.78;;
81191;SDS011;70665;47.652;-2.730;2023-06-19T00:57:34;10.02;;;4.28;;
81191;SDS011;70665;47.652;-2.730;2023-06-19T01:00:01;9.93;;;4.35;;
81191;SDS011;70665;47.652;-2.730;2023-06-19T01:02:29;9.30;;;3.40;;
81191;SDS011;70665;47.652;-2.730;2023-06-19T01:04:56;9.63;;;3.90;;
81191;SDS011;70665;47.652;-2.730;2023-06-19T01:10:21;9.45;;;3.83;;
81191;SDS011;70665;47.652;-2.730;2023-06-19T01:12:58;10.10;;;3.72;;
81191;SDS011;70665;47.652;-2.730;2023-06-19T01:15:31;10.68;;;4.13;;
81191;SDS011;70665;47.652;-2.730;2023-06-19T01:17:57;9.93;;;3.85;;
81191;SDS011;70665;47.652;-2.730;2023-06-19T01:20:25;9.75;;;4.25;;
81191;SDS011;70665;47.652;-2.730;2023-06-19T01:22:51;12.90;;;3.95;;
81191;SDS011;70665;47.652;-2.730;2023-06-19T01:25:21;11.80;;;4.18;;
81191;SDS011;70665;47.652;-2.730;2023-06-19T01:27:48;10.15;;;3.95;;
81191;SDS011;70665;47.652;-2.730;2023-06-19T01:30:13;10.63;;;4.07;;
81191;SDS011;70665;47.652;-2.730;2023-06-19T01:35:23;12.93;;;3.80;;
81191;SDS011;70665;47.652;-2.730;2023-06-19T01:37:53;9.23;;;4.00;;
81191;SDS011;70665;47.652;-2.730;2023-06-19T01:40:20;9.45;;;3.63;;
81191;SDS011;70665;47.652;-2.730;2023-06-19T01:42:49;10.93;;;4.95;;
81191;SDS011;70665;47.652;-2.730;2023-06-19T01:45:17;10.00;;;4.18;;
81191;SDS011;70665;47.652;-2.730;2023-06-19T01:47:43;13.27;;;4.28;;
81191;SDS011;70665;47.652;-2.730;2023-06-19T01:50:10;8.63;;;4.03;;
81191;SDS011;70665;47.652;-2.730;2023-06-19T01:52:37;11.00;;;4.28;;
81191;SDS011;70665;47.652;-2.730;2023-06-19T01:55:04;9.35;;;4.00;;
81191;SDS011;70665;47.652;-2.730;2023-06-19T01:57:30;12.75;;;4.10;;
81191;SDS011;70665;47.652;-2.730;2023-06-19T01:59:56;11.20;;;4.22;;
81191;SDS011;70665;47.652;-2.730;2023-06-19T02:02:22;10.05;;;4.30;;
81191;SDS011;70665;47.652;-2.730;2023-06-19T02:04:47;7.90;;;4.32;;
81191;SDS011;70665;47.652;-2.730;2023-06-19T02:07:13;6.43;;;3.60;;
81191;SDS011;70665;47.652;-2.730;2023-06-19T02:12:04;10.07;;;4.45;;
81191;SDS011;70665;47.652;-2.730;2023-06-19T02:14:30;10.27;;;5.32;;
81191;SDS011;70665;47.652;-2.730;2023-06-19T02:16:56;12.93;;;5.15;;
81191;SDS011;70665;47.652;-2.730;2023-06-19T02:19:21;11.75;;;5.18;;
81191;SDS011;70665;47.652;-2.730;2023-06-19T02:21:47;9.80;;;4.78;;
81191;SDS011;70665;47.652;-2.730;2023-06-19T02:24:13;11.18;;;5.35;;
81191;SDS011;70665;47.652;-2.730;2023-06-19T02:29:04;10.75;;;5.43;;
81191;SDS011;70665;47.652;-2.730;2023-06-19T02:31:29;10.20;;;4.80;;
81191;SDS011;70665;47.652;-2.730;2023-06-19T02:33:56;11.27;;;5.88;;
81191;SDS011;70665;47.652;-2.730;2023-06-19T02:38:47;10.88;;;4.75;;
81191;SDS011;70665;47.652;-2.730;2023-06-19T02:41:15;9.35;;;5.28;;
81191;SDS011;70665;47.652;-2.730;2023-06-19T02:46:07;12.25;;;5.50;;
81191;SDS011;70665;47.652;-2.730;2023-06-19T02:50:58;11.73;;;4.78;;
81191;SDS011;70665;47.652;-2.730;2023-06-19T02:55:49;12.27;;;5.13;;
81191;SDS011;70665;47.652;-2.730;2023-06-19T03:00:41;11.55;;;5.38;;
81191;SDS011;70665;47.652;-2.730;2023-06-19T03:05:32;10.43;;;5.55;;
81191;SDS011;70665;47.652;-2.730;2023-06-19T03:10:23;8.80;;;4.68;;
81191;SDS011;70665;47.652;-2.730;2023-06-19T03:15:14;9.18;;;4.55;;
81191;SDS011;70665;47.652;-2.730;2023-06-19T03:17:40;12.60;;;5.53;;
81191;SDS011;70665;47.652;-2.730;2023-06-19T03:22:31;11.07;;;5.40;;
81191;SDS011;70665;47.652;-2.730;2023-06-19T03:27:22;9.75;;;5.05;;
81191;SDS011;70665;47.652;-2.730;2023-06-19T03:29:51;11.95;;;5.13;;
81191;SDS011;70665;47.652;-2.730;2023-06-19T03:32:18;11.75;;;5.43;;
81191;SDS011;70665;47.652;-2.730;2023-06-19T03:34:44;14.07;;;5.40;;
81191;SDS011;70665;47.652;-2.730;2023-06-19T03:39:37;9.07;;;4.72;;
81191;SDS011;70665;47.652;-2.730;2023-06-19T03:42:03;10.07;;;5.43;;
81191;SDS011;70665;47.652;-2.730;2023-06-19T03:46:54;11.05;;;5.40;;
81191;SDS011;70665;47.652;-2.730;2023-06-19T03:51:45;8.68;;;4.63;;
81191;SDS011;70665;47.652;-2.730;2023-06-19T03:56:37;8.52;;;4.45;;
81191;SDS011;70665;47.652;-2.730;2023-06-19T03:59:03;11.60;;;5.10;;
81191;SDS011;70665;47.652;-2.730;2023-06-19T04:03:54;10.43;;;4.88;;
81191;SDS011;70665;47.652;-2.730;2023-06-19T04:08:45;9.38;;;4.80;;
81191;SDS011;70665;47.652;-2.730;2023-06-19T04:13:36;8.18;;;4.65;;
81191;SDS011;70665;47.652;-2.730;2023-06-19T04:16:02;9.60;;;4.35;;
81191;SDS011;70665;47.652;-2.730;2023-06-19T04:20:53;10.63;;;5.15;;
81191;SDS011;70665;47.652;-2.730;2023-06-19T04:25:44;8.10;;;4.40;;
81191;SDS011;70665;47.652;-2.730;2023-06-19T04:30:35;9.30;;;4.53;;
81191;SDS011;70665;47.652;-2.730;2023-06-19T04:33:04;7.82;;;4.60;;
81191;SDS011;70665;47.652;-2.730;2023-06-19T04:35:31;8.80;;;4.47;;
81191;SDS011;70665;47.652;-2.730;2023-06-19T04:40:26;10.18;;;5.03;;
81191;SDS011;70665;47.652;-2.730;2023-06-19T04:45:18;9.68;;;4.57;;
81191;SDS011;70665;47.652;-2.730;2023-06-19T04:50:10;10.70;;;5.05;;
81191;SDS011;70665;47.652;-2.730;2023-06-19T04:52:36;9.90;;;4.68;;
81191;SDS011;70665;47.652;-2.730;2023-06-19T04:55:04;10.98;;;4.63;;
81191;SDS011;70665;47.652;-2.730;2023-06-19T04:57:34;8.90;;;4.85;;
81191;SDS011;70665;47.652;-2.730;2023-06-19T05:00:00;10.20;;;4.97;;
81191;SDS011;70665;47.652;-2.730;2023-06-19T05:04:52;11.60;;;5.38;;
81191;SDS011;70665;47.652;-2.730;2023-06-19T05:09:43;12.90;;;5.88;;
81191;SDS011;70665;47.652;-2.730;2023-06-19T05:14:35;12.38;;;5.60;;
81191;SDS011;70665;47.652;-2.730;2023-06-19T05:19:26;13.27;;;5.50;;
81191;SDS011;70665;47.652;-2.730;2023-06-19T05:24:17;16.65;;;5.50;;
81191;SDS011;70665;47.652;-2.730;2023-06-19T05:29:08;12.55;;;5.75;;
81191;SDS011;70665;47.652;-2.730;2023-06-19T05:31:34;9.70;;;6.15;;
81191;SDS011;70665;47.652;-2.730;2023-06-19T05:34:00;11.10;;;5.78;;
81191;SDS011;70665;47.652;-2.730;2023-06-19T05:38:51;14.07;;;6.20;;
81191;SDS011;70665;47.652;-2.730;2023-06-19T05:43:42;10.27;;;5.55;;
81191;SDS011;70665;47.652;-2.730;2023-06-19T05:48:34;11.45;;;6.18;;
81191;SDS011;70665;47.652;-2.730;2023-06-19T05:53:25;14.93;;;5.50;;
81191;SDS011;70665;47.652;-2.730;2023-06-19T05:58:16;12.95;;;5.25;;
81191;SDS011;70665;47.652;-2.730;2023-06-19T06:00:45;11.52;;;5.13;;
81191;SDS011;70665;47.652;-2.730;2023-06-19T06:03:11;19.98;;;6.75;;
81191;SDS011;70665;47.652;-2.730;2023-06-19T06:05:38;14.77;;;5.88;;
81191;SDS011;70665;47.652;-2.730;2023-06-19T06:08:04;14.15;;;5.95;;
81191;SDS011;70665;47.652;-2.730;2023-06-19T06:12:55;14.27;;;6.03;;
81191;SDS011;70665;47.652;-2.730;2023-06-19T06:17:46;12.07;;;5.60;;
81191;SDS011;70665;47.652;-2.730;2023-06-19T06:22:38;12.80;;;5.35;;
81191;SDS011;70665;47.652;-2.730;2023-06-19T06:25:04;10.13;;;5.05;;
81191;SDS011;70665;47.652;-2.730;2023-06-19T06:27:31;13.45;;;5.93;;
81191;SDS011;70665;47.652;-2.730;2023-06-19T06:29:56;13.38;;;5.63;;
81191;SDS011;70665;47.652;-2.730;2023-06-19T06:32:22;17.75;;;6.72;;
81191;SDS011;70665;47.652;-2.730;2023-06-19T06:34:48;11.57;;;6.05;;
81191;SDS011;70665;47.652;-2.730;2023-06-19T06:37:13;13.35;;;6.20;;
81191;SDS011;70665;47.652;-2.730;2023-06-19T06:39:41;17.15;;;5.75;;
81191;SDS011;70665;47.652;-2.730;2023-06-19T06:44:32;13.48;;;5.85;;
81191;SDS011;70665;47.652;-2.730;2023-06-19T06:49:23;13.07;;;5.28;;
81191;SDS011;70665;47.652;-2.730;2023-06-19T06:51:49;16.55;;;5.75;;
81191;SDS011;70665;47.652;-2.730;2023-06-19T06:54:14;9.30;;;5.35;;
81191;SDS011;70665;47.652;-2.730;2023-06-19T06:56:40;16.30;;;5.93;;
81191;SDS011;70665;47.652;-2.730;2023-06-19T06:59:06;15.90;;;5.55;;
81191;SDS011;70665;47.652;-2.730;2023-06-19T07:01:31;10.77;;;4.82;;
81191;SDS011;70665;47.652;-2.730;2023-06-19T07:03:57;12.63;;;5.03;;
81191;SDS011;70665;47.652;-2.730;2023-06-19T07:06:22;12.38;;;5.53;;
81191;SDS011;70665;47.652;-2.730;2023-06-19T07:08:48;12.82;;;4.97;;
81191;SDS011;70665;47.652;-2.730;2023-06-19T07:11:14;12.63;;;4.93;;
81191;SDS011;70665;47.652;-2.730;2023-06-19T07:13:39;8.27;;;4.50;;
81191;SDS011;70665;47.652;-2.730;2023-06-19T07:16:06;11.20;;;5.47;;
81191;SDS011;70665;47.652;-2.730;2023-06-19T07:18:32;11.95;;;5.03;;
81191;SDS011;70665;47.652;-2.730;2023-06-19T07:21:00;9.52;;;4.72;;
81191;SDS011;70665;47.652;-2.730;2023-06-19T07:23:26;11.63;;;5.10;;
81191;SDS011;70665;47.652;-2.730;2023-06-19T07:25:52;13.77;;;5.35;;
81191;SDS011;70665;47.652;-2.730;2023-06-19T07:28:18;15.40;;;5.75;;
81191;SDS011;70665;47.652;-2.730;2023-06-19T07:30:43;13.38;;;5.38;;
81191;SDS011;70665;47.652;-2.730;2023-06-19T07:33:10;11.82;;;5.57;;
81191;SDS011;70665;47.652;-2.730;2023-06-19T07:35:35;12.85;;;5.53;;
81191;SDS011;70665;47.652;-2.730;2023-06-19T07:38:01;13.82;;;6.20;;
81191;SDS011;70665;47.652;-2.730;2023-06-19T07:40:27;14.77;;;6.53;;
81191;SDS011;70665;47.652;-2.730;2023-06-19T07:42:52;13.55;;;6.43;;
81191;SDS011;70665;47.652;-2.730;2023-06-19T07:45:18;17.52;;;5.97;;
81191;SDS011;70665;47.652;-2.730;2023-06-19T07:47:43;13.70;;;5.45;;
81191;SDS011;70665;47.652;-2.730;2023-06-19T07:50:18;10.93;;;5.30;;
81191;SDS011;70665;47.652;-2.730;2023-06-19T07:52:43;12.82;;;5.40;;
81191;SDS011;70665;47.652;-2.730;2023-06-19T07:55:09;11.85;;;5.57;;
81191;SDS011;70665;47.652;-2.730;2023-06-19T07:57:35;8.73;;;5.13;;
81191;SDS011;70665;47.652;-2.730;2023-06-19T08:00:01;14.55;;;5.30;;
81191;SDS011;70665;47.652;-2.730;2023-06-19T08:02:32;12.85;;;4.93;;
81191;SDS011;70665;47.652;-2.730;2023-06-19T08:04:57;14.10;;;5.60;;
81191;SDS011;70665;47.652;-2.730;2023-06-19T08:07:23;13.20;;;5.22;;
81191;SDS011;70665;47.652;-2.730;2023-06-19T08:09:48;12.98;;;4.43;;
81191;SDS011;70665;47.652;-2.730;2023-06-19T08:12:14;14.40;;;5.22;;
81191;SDS011;70665;47.652;-2.730;2023-06-19T08:14:40;11.75;;;4.97;;
81191;SDS011;70665;47.652;-2.730;2023-06-19T08:17:05;10.80;;;5.50;;
81191;SDS011;70665;47.652;-2.730;2023-06-19T08:19:31;14.57;;;4.60;;
81191;SDS011;70665;47.652;-2.730;2023-06-19T08:21:57;16.67;;;5.20;;
81191;SDS011;70665;47.652;-2.730;2023-06-19T08:24:22;11.23;;;4.20;;
81191;SDS011;70665;47.652;-2.730;2023-06-19T08:26:48;11.98;;;3.65;;
81191;SDS011;70665;47.652;-2.730;2023-06-19T08:29:16;8.90;;;3.58;;
81191;SDS011;70665;47.652;-2.730;2023-06-19T08:31:43;9.00;;;4.43;;
81191;SDS011;70665;47.652;-2.730;2023-06-19T08:34:08;10.95;;;4.60;;
81191;SDS011;70665;47.652;-2.730;2023-06-19T08:36:35;8.43;;;3.38;;
81191;SDS011;70665;47.652;-2.730;2023-06-19T08:39:01;12.02;;;4.20;;
81191;SDS011;70665;47.652;-2.730;2023-06-19T08:41:27;9.05;;;3.58;;
81191;SDS011;70665;47.652;-2.730;2023-06-19T08:43:53;9.80;;;3.58;;
81191;SDS011;70665;47.652;-2.730;2023-06-19T08:46:19;11.15;;;4.45;;
81191;SDS011;70665;47.652;-2.730;2023-06-19T08:48:45;9.77;;;3.70;;
81191;SDS011;70665;47.652;-2.730;2023-06-19T08:51:11;11.65;;;3.70;;
81191;SDS011;70665;47.652;-2.730;2023-06-19T08:53:46;8.20;;;3.50;;
81191;SDS011;70665;47.652;-2.730;2023-06-19T08:56:19;10.15;;;4.00;;
81191;SDS011;70665;47.652;-2.730;2023-06-19T08:58:45;13.32;;;3.85;;
81191;SDS011;70665;47.652;-2.730;2023-06-19T09:01:10;9.20;;;3.42;;
81191;SDS011;70665;47.652;-2.730;2023-06-19T09:03:36;9.20;;;3.40;;
81191;SDS011;70665;47.652;-2.730;2023-06-19T09:06:08;7.35;;;3.13;;
81191;SDS011;70665;47.652;-2.730;2023-06-19T09:08:34;8.68;;;3.25;;
81191;SDS011;70665;47.652;-2.730;2023-06-19T09:11:03;8.05;;;3.20;;
81191;SDS011;70665;47.652;-2.730;2023-06-19T09:13:30;7.88;;;2.72;;
81191;SDS011;70665;47.652;-2.730;2023-06-19T09:15:58;8.00;;;3.47;;
81191;SDS011;70665;47.652;-2.730;2023-06-19T09:18:29;9.27;;;2.85;;
81191;SDS011;70665;47.652;-2.730;2023-06-19T09:20:56;7.35;;;2.75;;
81191;SDS011;70665;47.652;-2.730;2023-06-19T09:23:22;8.93;;;3.05;;
81191;SDS011;70665;47.652;-2.730;2023-06-19T09:25:50;9.43;;;2.90;;
81191;SDS011;70665;47.652;-2.730;2023-06-19T09:28:23;7.25;;;2.85;;
81191;SDS011;70665;47.652;-2.730;2023-06-19T09:30:57;10.38;;;3.60;;
81191;SDS011;70665;47.652;-2.730;2023-06-19T09:33:29;9.55;;;2.92;;
81191;SDS011;70665;47.652;-2.730;2023-06-19T09:35:56;7.90;;;3.50;;
81191;SDS011;70665;47.652;-2.730;2023-06-19T09:38:26;7.80;;;2.78;;
81191;SDS011;70665;47.652;-2.730;2023-06-19T09:40:53;7.35;;;2.92;;
81191;SDS011;70665;47.652;-2.730;2023-06-19T09:43:24;7.28;;;3.00;;
81191;SDS011;70665;47.652;-2.730;2023-06-19T09:46:09;7.40;;;2.88;;
81191;SDS011;70665;47.652;-2.730;2023-06-19T09:48:36;8.55;;;3.22;;
81191;SDS011;70665;47.652;-2.730;2023-06-19T09:53:49;8.15;;;2.75;;
81191;SDS011;70665;47.652;-2.730;2023-06-19T09:56:16;7.47;;;2.85;;
81191;SDS011;70665;47.652;-2.730;2023-06-19T09:58:46;9.27;;;3.00;;
81191;SDS011;70665;47.652;-2.730;2023-06-19T10:01:14;5.70;;;2.80;;
81191;SDS011;70665;47.652;-2.730;2023-06-19T10:03:43;7.35;;;3.20;;
81191;SDS011;70665;47.652;-2.730;2023-06-19T10:06:13;5.63;;;2.90;;
81191;SDS011;70665;47.652;-2.730;2023-06-19T10:08:41;5.22;;;2.90;;
81191;SDS011;70665;47.652;-2.730;2023-06-19T10:11:09;7.97;;;2.80;;
81191;SDS011;70665;47.652;-2.730;2023-06-19T10:13:37;8.05;;;3.00;;
81191;SDS011;70665;47.652;-2.730;2023-06-19T10:16:04;7.53;;;2.58;;
81191;SDS011;70665;47.652;-2.730;2023-06-19T10:18:31;8.00;;;3.10;;
81191;SDS011;70665;47.652;-2.730;2023-06-19T10:20:57;7.32;;;2.58;;
81191;SDS011;70665;47.652;-2.730;2023-06-19T10:23:24;8.57;;;2.72;;
81191;SDS011;70665;47.652;-2.730;2023-06-19T10:25:55;5.78;;;2.83;;
81191;SDS011;70665;47.652;-2.730;2023-06-19T10:28:24;8.93;;;3.15;;
81191;SDS011;70665;47.652;-2.730;2023-06-19T10:30:53;6.22;;;2.58;;
81191;SDS011;70665;47.652;-2.730;2023-06-19T10:33:23;9.10;;;2.65;;
81191;SDS011;70665;47.652;-2.730;2023-06-19T10:35:50;6.63;;;2.85;;
81191;SDS011;70665;47.652;-2.730;2023-06-19T10:38:16;6.53;;;2.67;;
81191;SDS011;70665;47.652;-2.730;2023-06-19T10:40:43;5.63;;;3.00;;
81191;SDS011;70665;47.652;-2.730;2023-06-19T10:43:10;4.05;;;2.50;;
81191;SDS011;70665;47.652;-2.730;2023-06-19T10:45:44;4.22;;;2.58;;
81191;SDS011;70665;47.652;-2.730;2023-06-19T10:48:09;5.80;;;2.80;;
81191;SDS011;70665;47.652;-2.730;2023-06-19T10:50:41;5.35;;;2.90;;
81191;SDS011;70665;47.652;-2.730;2023-06-19T10:53:07;14.30;;;3.00;;
81191;SDS011;70665;47.652;-2.730;2023-06-19T10:55:33;7.22;;;2.92;;
81191;SDS011;70665;47.652;-2.730;2023-06-19T10:57:59;6.05;;;2.58;;
81191;SDS011;70665;47.652;-2.730;2023-06-19T11:00:28;6.30;;;2.80;;
81191;SDS011;70665;47.652;-2.730;2023-06-19T11:02:58;7.13;;;2.70;;
81191;SDS011;70665;47.652;-2.730;2023-06-19T11:05:25;5.15;;;2.83;;
81191;SDS011;70665;47.652;-2.730;2023-06-19T11:07:56;6.70;;;3.00;;
81191;SDS011;70665;47.652;-2.730;2023-06-19T11:10:24;4.53;;;2.70;;
81191;SDS011;70665;47.652;-2.730;2023-06-19T11:12:54;5.07;;;2.78;;
81191;SDS011;70665;47.652;-2.730;2023-06-19T11:15:27;6.22;;;2.80;;
81191;SDS011;70665;47.652;-2.730;2023-06-19T11:17:56;5.10;;;3.03;;
81191;SDS011;70665;47.652;-2.730;2023-06-19T11:20:22;5.18;;;3.10;;
81191;SDS011;70665;47.652;-2.730;2023-06-19T11:22:53;4.95;;;2.53;;
81191;SDS011;70665;47.652;-2.730;2023-06-19T11:25:37;4.53;;;2.83;;
81191;SDS011;70665;47.652;-2.730;2023-06-19T11:28:04;5.75;;;2.65;;
81191;SDS011;70665;47.652;-2.730;2023-06-19T11:30:35;4.50;;;2.58;;
81191;SDS011;70665;47.652;-2.730;2023-06-19T11:33:01;5.78;;;2.55;;
81191;SDS011;70665;47.652;-2.730;2023-06-19T11:35:32;5.15;;;2.83;;
81191;SDS011;70665;47.652;-2.730;2023-06-19T11:38:01;5.40;;;2.88;;
81191;SDS011;70665;47.652;-2.730;2023-06-19T11:40:27;5.68;;;2.92;;
81191;SDS011;70665;47.652;-2.730;2023-06-19T11:42:54;7.05;;;2.72;;
81191;SDS011;70665;47.652;-2.730;2023-06-19T11:45:20;6.05;;;3.22;;
81191;SDS011;70665;47.652;-2.730;2023-06-19T11:47:47;6.88;;;2.92;;
81191;SDS011;70665;47.652;-2.730;2023-06-19T11:50:14;5.43;;;3.28;;
81191;SDS011;70665;47.652;-2.730;2023-06-19T11:52:44;7.53;;;3.42;;
81191;SDS011;70665;47.652;-2.730;2023-06-19T11:55:10;6.10;;;3.50;;
81191;SDS011;70665;47.652;-2.730;2023-06-19T11:57:35;6.93;;;2.75;;
81191;SDS011;70665;47.652;-2.730;2023-06-19T12:00:02;6.70;;;3.40;;
81191;SDS011;70665;47.652;-2.730;2023-06-19T12:02:32;6.13;;;3.72;;
81191;SDS011;70665;47.652;-2.730;2023-06-19T12:04:58;7.45;;;2.92;;
81191;SDS011;70665;47.652;-2.730;2023-06-19T12:07:24;5.45;;;3.22;;
81191;SDS011;70665;47.652;-2.730;2023-06-19T12:09:50;5.93;;;3.42;;
81191;SDS011;70665;47.652;-2.730;2023-06-19T12:12:17;7.18;;;3.28;;
81191;SDS011;70665;47.652;-2.730;2023-06-19T12:14:42;5.85;;;3.22;;
81191;SDS011;70665;47.652;-2.730;2023-06-19T12:17:08;5.88;;;3.40;;
81191;SDS011;70665;47.652;-2.730;2023-06-19T12:19:35;5.43;;;3.53;;
81191;SDS011;70665;47.652;-2.730;2023-06-19T12:22:00;8.90;;;3.60;;
81191;SDS011;70665;47.652;-2.730;2023-06-19T12:24:28;6.05;;;3.47;;
81191;SDS011;70665;47.652;-2.730;2023-06-19T12:26:54;5.97;;;3.47;;
81191;SDS011;70665;47.652;-2.730;2023-06-19T12:29:19;7.93;;;3.47;;
81191;SDS011;70665;47.652;-2.730;2023-06-19T12:31:45;6.15;;;3.55;;
81191;SDS011;70665;47.652;-2.730;2023-06-19T12:34:11;6.63;;;3.95;;
81191;SDS011;70665;47.652;-2.730;2023-06-19T12:36:37;4.90;;;3.25;;
81191;SDS011;70665;47.652;-2.730;2023-06-19T12:39:02;6.40;;;3.30;;
81191;SDS011;70665;47.652;-2.730;2023-06-19T12:41:31;7.47;;;3.67;;
81191;SDS011;70665;47.652;-2.730;2023-06-19T12:43:56;6.78;;;3.83;;
81191;SDS011;70665;47.652;-2.730;2023-06-19T12:46:22;6.25;;;3.63;;
81191;SDS011;70665;47.652;-2.730;2023-06-19T12:48:47;7.95;;;3.83;;
81191;SDS011;70665;47.652;-2.730;2023-06-19T12:51:16;6.72;;;3.72;;
81191;SDS011;70665;47.652;-2.730;2023-06-19T12:53:42;6.80;;;3.72;;
81191;SDS011;70665;47.652;-2.730;2023-06-19T12:56:08;5.68;;;3.53;;
81191;SDS011;70665;47.652;-2.730;2023-06-19T12:58:34;8.90;;;4.35;;
81191;SDS011;70665;47.652;-2.730;2023-06-19T13:01:00;6.28;;;3.58;;
81191;SDS011;70665;47.652;-2.730;2023-06-19T13:03:25;5.95;;;3.85;;
81191;SDS011;70665;47.652;-2.730;2023-06-19T13:05:51;8.43;;;3.80;;
81191;SDS011;70665;47.652;-2.730;2023-06-19T13:08:16;7.95;;;4.07;;
81191;SDS011;70665;47.652;-2.730;2023-06-19T13:10:42;6.53;;;3.67;;
81191;SDS011;70665;47.652;-2.730;2023-06-19T13:13:08;8.63;;;4.20;;
81191;SDS011;70665;47.652;-2.730;2023-06-19T13:15:35;7.22;;;3.75;;
81191;SDS011;70665;47.652;-2.730;2023-06-19T13:18:01;6.43;;;3.78;;
81191;SDS011;70665;47.652;-2.730;2023-06-19T13:20:26;6.00;;;3.50;;
81191;SDS011;70665;47.652;-2.730;2023-06-19T13:22:52;8.23;;;3.55;;
81191;SDS011;70665;47.652;-2.730;2023-06-19T13:25:18;5.80;;;3.33;;
81191;SDS011;70665;47.652;-2.730;2023-06-19T13:27:44;6.75;;;3.65;;
81191;SDS011;70665;47.652;-2.730;2023-06-19T13:30:10;6.18;;;3.33;;
81191;SDS011;70665;47.652;-2.730;2023-06-19T13:32:36;4.63;;;3.30;;
81191;SDS011;70665;47.652;-2.730;2023-06-19T13:35:03;6.47;;;3.50;;
81191;SDS011;70665;47.652;-2.730;2023-06-19T13:37:30;5.97;;;3.10;;
81191;SDS011;70665;47.652;-2.730;2023-06-19T13:39:55;7.38;;;3.58;;
81191;SDS011;70665;47.652;-2.730;2023-06-19T13:42:21;4.68;;;3.38;;
81191;SDS011;70665;47.652;-2.730;2023-06-19T13:44:46;7.93;;;3.72;;
81191;SDS011;70665;47.652;-2.730;2023-06-19T13:47:12;5.43;;;3.33;;
81191;SDS011;70665;47.652;-2.730;2023-06-19T13:49:38;5.93;;;3.00;;
81191;SDS011;70665;47.652;-2.730;2023-06-19T13:52:04;7.97;;;4.03;;
81191;SDS011;70665;47.652;-2.730;2023-06-19T13:54:30;5.35;;;3.20;;
81191;SDS011;70665;47.652;-2.730;2023-06-19T13:56:56;7.28;;;3.63;;
81191;SDS011;70665;47.652;-2.730;2023-06-19T13:59:22;7.72;;;3.58;;
81191;SDS011;70665;47.652;-2.730;2023-06-19T14:01:47;6.43;;;3.50;;
81191;SDS011;70665;47.652;-2.730;2023-06-19T14:04:13;5.07;;;3.65;;
81191;SDS011;70665;47.652;-2.730;2023-06-19T14:06:38;5.78;;;3.50;;
81191;SDS011;70665;47.652;-2.730;2023-06-19T14:09:06;4.82;;;3.22;;
81191;SDS011;70665;47.652;-2.730;2023-06-19T14:11:32;7.25;;;3.38;;
81191;SDS011;70665;47.652;-2.730;2023-06-19T14:13:58;5.53;;;3.35;;
81191;SDS011;70665;47.652;-2.730;2023-06-19T14:16:23;7.13;;;3.88;;
81191;SDS011;70665;47.652;-2.730;2023-06-19T14:18:49;6.13;;;3.30;;
81191;SDS011;70665;47.652;-2.730;2023-06-19T14:21:15;5.32;;;3.60;;
81191;SDS011;70665;47.652;-2.730;2023-06-19T14:23:40;5.72;;;3.35;;
81191;SDS011;70665;47.652;-2.730;2023-06-19T14:26:09;7.28;;;3.63;;
81191;SDS011;70665;47.652;-2.730;2023-06-19T14:28:36;6.78;;;3.95;;
81191;SDS011;70665;47.652;-2.730;2023-06-19T14:31:03;6.15;;;3.55;;
81191;SDS011;70665;47.652;-2.730;2023-06-19T14:33:29;6.13;;;3.42;;
81191;SDS011;70665;47.652;-2.730;2023-06-19T14:35:55;5.47;;;3.50;;
81191;SDS011;70665;47.652;-2.730;2023-06-19T14:38:20;5.32;;;3.80;;
81191;SDS011;70665;47.652;-2.730;2023-06-19T14:40:46;7.13;;;3.65;;
81191;SDS011;70665;47.652;-2.730;2023-06-19T14:43:12;6.30;;;3.42;;
81191;SDS011;70665;47.652;-2.730;2023-06-19T14:45:37;7.45;;;4.05;;
81191;SDS011;70665;47.652;-2.730;2023-06-19T14:48:04;7.30;;;3.42;;
81191;SDS011;70665;47.652;-2.730;2023-06-19T14:50:30;6.57;;;3.67;;
81191;SDS011;70665;47.652;-2.730;2023-06-19T14:52:56;6.80;;;3.90;;
81191;SDS011;70665;47.652;-2.730;2023-06-19T14:55:22;6.18;;;3.40;;
81191;SDS011;70665;47.652;-2.730;2023-06-19T14:57:47;5.45;;;3.53;;
81191;SDS011;70665;47.652;-2.730;2023-06-19T15:00:13;6.20;;;3.22;;
81191;SDS011;70665;47.652;-2.730;2023-06-19T15:02:39;6.05;;;3.58;;
81191;SDS011;70665;47.652;-2.730;2023-06-19T15:05:05;6.85;;;3.88;;
81191;SDS011;70665;47.652;-2.730;2023-06-19T15:07:31;5.22;;;3.47;;
81191;SDS011;70665;47.652;-2.730;2023-06-19T15:09:56;7.40;;;3.75;;
81191;SDS011;70665;47.652;-2.730;2023-06-19T15:12:22;6.63;;;3.30;;
81191;SDS011;70665;47.652;-2.730;2023-06-19T15:14:47;7.72;;;3.60;;
81191;SDS011;70665;47.652;-2.730;2023-06-19T15:17:13;6.47;;;3.40;;
81191;SDS011;70665;47.652;-2.730;2023-06-19T15:19:39;5.95;;;3.33;;
81191;SDS011;70665;47.652;-2.730;2023-06-19T15:22:05;5.65;;;3.13;;
81191;SDS011;70665;47.652;-2.730;2023-06-19T15:24:31;6.15;;;3.55;;
81191;SDS011;70665;47.652;-2.730;2023-06-19T15:26:56;7.22;;;3.03;;
81191;SDS011;70665;47.652;-2.730;2023-06-19T15:29:24;6.63;;;3.53;;
81191;SDS011;70665;47.652;-2.730;2023-06-19T15:31:49;9.02;;;3.75;;
81191;SDS011;70665;47.652;-2.730;2023-06-19T15:34:15;6.38;;;3.28;;
81191;SDS011;70665;47.652;-2.730;2023-06-19T15:36:40;10.50;;;3.78;;
81191;SDS011;70665;47.652;-2.730;2023-06-19T15:39:06;7.22;;;3.45;;
81191;SDS011;70665;47.652;-2.730;2023-06-19T15:41:32;5.13;;;3.60;;
81191;SDS011;70665;47.652;-2.730;2023-06-19T15:43:57;7.90;;;3.67;;
81191;SDS011;70665;47.652;-2.730;2023-06-19T15:46:23;7.78;;;3.28;;
81191;SDS011;70665;47.652;-2.730;2023-06-19T15:48:48;5.68;;;3.22;;
81191;SDS011;70665;47.652;-2.730;2023-06-19T15:51:15;7.10;;;3.10;;
81191;SDS011;70665;47.652;-2.730;2023-06-19T15:53:42;5.75;;;3.28;;
81191;SDS011;70665;47.652;-2.730;2023-06-19T15:56:08;6.47;;;3.15;;
81191;SDS011;70665;47.652;-2.730;2023-06-19T15:58:34;6.65;;;3.35;;
81191;SDS011;70665;47.652;-2.730;2023-06-19T16:00:59;7.88;;;3.25;;
81191;SDS011;70665;47.652;-2.730;2023-06-19T16:03:25;6.70;;;3.25;;
81191;SDS011;70665;47.652;-2.730;2023-06-19T16:05:52;4.93;;;3.17;;
81191;SDS011;70665;47.652;-2.730;2023-06-19T16:08:18;4.90;;;2.88;;
81191;SDS011;70665;47.652;-2.730;2023-06-19T16:10:47;5.80;;;3.15;;
81191;SDS011;70665;47.652;-2.730;2023-06-19T16:13:13;5.57;;;3.00;;
81191;SDS011;70665;47.652;-2.730;2023-06-19T16:15:40;6.45;;;3.55;;
81191;SDS011;70665;47.652;-2.730;2023-06-19T16:18:06;5.85;;;3.20;;
81191;SDS011;70665;47.652;-2.730;2023-06-19T16:20:32;6.05;;;3.78;;
81191;SDS011;70665;47.652;-2.730;2023-06-19T16:22:58;5.55;;;3.55;;
81191;SDS011;70665;47.652;-2.730;2023-06-19T16:25:23;6.88;;;3.25;;
81191;SDS011;70665;47.652;-2.730;2023-06-19T16:27:49;6.32;;;3.40;;